sensor_id;sensor_type;location;lat;lon;timestamp;pressure;altitude;pressure_sealevel;temperature;humidity
36980;BME280;22891;50.562;7.272;2022-07-18T00:02:02;101725.00;;;16.09;nan
36980;BME280;22891;50.562;7.272;2022-07-18T00:04:28;101720.00;;;16.05;nan
36980;BME280;22891;50.562;7.272;2022-07-18T00:06:55;101720.00;;;16.18;nan
36980;BME280;22891;50.562;7.272;2022-07-18T00:09:22;101723.00;;;16.26;nan
36980;BME280;22891;50.562;7.272;2022-07-18T00:11:50;101720.00;;;16.21;nan
36980;BME280;22891;50.562;7.272;2022-07-18T00:14:16;101716.00;;;16.11;nan
36980;BME280;22891;50.562;7.272;2022-07-18T00:16:43;101711.00;;;16.19;nan
36980;BME280;22891;50.562;7.272;2022-07-18T00:19:09;101707.00;;;16.23;nan
36980;BME280;22891;50.562;7.272;2022-07-18T00:21:35;101700.00;;;16.22;nan
36980;BME280;22891;50.562;7.272;2022-07-18T00:24:01;101699.00;;;16.10;nan
36980;BME280;22891;50.562;7.272;2022-07-18T00:26:27;101688.00;;;16.09;nan
36980;BME280;22891;50.562;7.272;2022-07-18T00:28:53;101676.00;;;15.81;nan
36980;BME280;22891;50.562;7.272;2022-07-18T00:31:18;101655.00;;;15.70;nan
36980;BME280;22891;50.562;7.272;2022-07-18T00:33:44;101664.00;;;15.78;nan
36980;BME280;22891;50.562;7.272;2022-07-18T00:36:10;101669.00;;;15.78;nan
36980;BME280;22891;50.562;7.272;2022-07-18T00:38:36;101669.00;;;15.75;nan
36980;BME280;22891;50.562;7.272;2022-07-18T00:41:01;101672.00;;;15.67;nan
36980;BME280;22891;50.562;7.272;2022-07-18T00:43:27;101649.00;;;15.61;nan
36980;BME280;22891;50.562;7.272;2022-07-18T00:45:53;101649.00;;;15.50;nan
36980;BME280;22891;50.562;7.272;2022-07-18T00:48:19;101647.00;;;15.26;nan
36980;BME280;22891;50.562;7.272;2022-07-18T00:50:46;101639.00;;;15.35;nan
36980;BME280;22891;50.562;7.272;2022-07-18T00:53:13;101640.00;;;15.35;nan
36980;BME280;22891;50.562;7.272;2022-07-18T00:55:41;101649.00;;;15.15;nan
36980;BME280;22891;50.562;7.272;2022-07-18T00:58:08;101648.00;;;14.99;nan
36980;BME280;22891;50.562;7.272;2022-07-18T01:00:34;101657.00;;;14.95;nan
36980;BME280;22891;50.562;7.272;2022-07-18T01:03:19;101672.00;;;14.94;nan
36980;BME280;22891;50.562;7.272;2022-07-18T01:05:45;101683.00;;;14.88;nan
36980;BME280;22891;50.562;7.272;2022-07-18T01:08:12;101676.00;;;14.83;nan
36980;BME280;22891;50.562;7.272;2022-07-18T01:10:37;101681.00;;;14.98;nan
36980;BME280;22891;50.562;7.272;2022-07-18T01:13:03;101689.00;;;15.11;nan
36980;BME280;22891;50.562;7.272;2022-07-18T01:15:32;101681.00;;;14.98;nan
36980;BME280;22891;50.562;7.272;2022-07-18T01:17:58;101687.00;;;14.94;nan
36980;BME280;22891;50.562;7.272;2022-07-18T01:20:29;101690.00;;;14.82;nan
36980;BME280;22891;50.562;7.272;2022-07-18T01:22:56;101689.00;;;14.88;nan
36980;BME280;22891;50.562;7.272;2022-07-18T01:25:23;101676.00;;;14.82;nan
36980;BME280;22891;50.562;7.272;2022-07-18T01:27:48;101665.00;;;14.74;nan
36980;BME280;22891;50.562;7.272;2022-07-18T01:30:14;101677.00;;;14.94;nan
36980;BME280;22891;50.562;7.272;2022-07-18T01:32:41;101689.00;;;14.95;nan
36980;BME280;22891;50.562;7.272;2022-07-18T01:35:09;101692.00;;;14.95;nan
36980;BME280;22891;50.562;7.272;2022-07-18T01:37:35;101668.00;;;14.60;nan
36980;BME280;22891;50.562;7.272;2022-07-18T01:40:01;101662.00;;;14.48;nan
36980;BME280;22891;50.562;7.272;2022-07-18T01:42:27;101650.00;;;14.46;nan
36980;BME280;22891;50.562;7.272;2022-07-18T01:44:53;101637.00;;;14.40;nan
36980;BME280;22891;50.562;7.272;2022-07-18T01:47:18;101619.00;;;14.49;nan
36980;BME280;22891;50.562;7.272;2022-07-18T01:49:44;101634.00;;;14.62;nan
36980;BME280;22891;50.562;7.272;2022-07-18T01:52:10;101637.00;;;14.70;nan
36980;BME280;22891;50.562;7.272;2022-07-18T01:54:38;101631.00;;;14.44;nan
36980;BME280;22891;50.562;7.272;2022-07-18T01:57:05;101629.00;;;14.57;nan
36980;BME280;22891;50.562;7.272;2022-07-18T01:59:31;101640.00;;;14.68;nan
36980;BME280;22891;50.562;7.272;2022-07-18T02:01:57;101629.00;;;14.46;nan
36980;BME280;22891;50.562;7.272;2022-07-18T02:04:24;101616.00;;;14.31;nan
36980;BME280;22891;50.562;7.272;2022-07-18T02:07:25;101610.00;;;14.25;nan
36980;BME280;22891;50.562;7.272;2022-07-18T02:09:51;101606.00;;;14.10;nan
36980;BME280;22891;50.562;7.272;2022-07-18T02:12:17;101603.00;;;14.24;nan
36980;BME280;22891;50.562;7.272;2022-07-18T02:14:43;101608.00;;;14.36;nan
36980;BME280;22891;50.562;7.272;2022-07-18T02:17:09;101617.00;;;14.51;nan
36980;BME280;22891;50.562;7.272;2022-07-18T02:19:35;101594.00;;;14.31;nan
36980;BME280;22891;50.562;7.272;2022-07-18T02:22:01;101587.00;;;13.92;nan
36980;BME280;22891;50.562;7.272;2022-07-18T02:24:26;101572.00;;;14.08;nan
36980;BME280;22891;50.562;7.272;2022-07-18T02:26:52;101580.00;;;14.10;nan
36980;BME280;22891;50.562;7.272;2022-07-18T02:29:18;101570.00;;;14.16;nan
36980;BME280;22891;50.562;7.272;2022-07-18T02:31:44;101582.00;;;14.23;nan
36980;BME280;22891;50.562;7.272;2022-07-18T02:34:10;101587.00;;;14.36;nan
36980;BME280;22891;50.562;7.272;2022-07-18T02:36:37;101603.00;;;14.30;nan
36980;BME280;22891;50.562;7.272;2022-07-18T02:39:04;101594.00;;;14.22;nan
36980;BME280;22891;50.562;7.272;2022-07-18T02:41:30;101595.00;;;14.27;nan
36980;BME280;22891;50.562;7.272;2022-07-18T02:43:56;101598.00;;;14.27;nan
36980;BME280;22891;50.562;7.272;2022-07-18T02:46:22;101600.00;;;14.21;nan
36980;BME280;22891;50.562;7.272;2022-07-18T02:48:48;101598.00;;;14.17;nan
36980;BME280;22891;50.562;7.272;2022-07-18T02:51:14;101592.00;;;14.24;nan
36980;BME280;22891;50.562;7.272;2022-07-18T02:53:39;101600.00;;;14.19;nan
36980;BME280;22891;50.562;7.272;2022-07-18T02:56:06;101615.00;;;14.22;nan
36980;BME280;22891;50.562;7.272;2022-07-18T02:58:33;101615.00;;;14.28;nan
36980;BME280;22891;50.562;7.272;2022-07-18T03:01:00;101614.00;;;14.11;nan
36980;BME280;22891;50.562;7.272;2022-07-18T03:03:25;101588.00;;;13.72;nan
36980;BME280;22891;50.562;7.272;2022-07-18T03:05:52;101560.00;;;13.54;nan
36980;BME280;22891;50.562;7.272;2022-07-18T03:08:17;101539.00;;;13.47;nan
36980;BME280;22891;50.562;7.272;2022-07-18T03:10:43;101529.00;;;13.60;nan
36980;BME280;22891;50.562;7.272;2022-07-18T03:13:09;101533.00;;;13.75;nan
36980;BME280;22891;50.562;7.272;2022-07-18T03:15:36;101542.00;;;13.59;nan
36980;BME280;22891;50.562;7.272;2022-07-18T03:18:02;101535.00;;;13.57;nan
36980;BME280;22891;50.562;7.272;2022-07-18T03:20:29;101529.00;;;13.59;nan
36980;BME280;22891;50.562;7.272;2022-07-18T03:22:55;101543.00;;;13.69;nan
36980;BME280;22891;50.562;7.272;2022-07-18T03:25:21;101544.00;;;13.72;nan
36980;BME280;22891;50.562;7.272;2022-07-18T03:27:48;101555.00;;;13.71;nan
36980;BME280;22891;50.562;7.272;2022-07-18T03:30:13;101553.00;;;13.72;nan
36980;BME280;22891;50.562;7.272;2022-07-18T03:32:39;101555.00;;;13.82;nan
36980;BME280;22891;50.562;7.272;2022-07-18T03:35:06;101562.00;;;13.80;nan
36980;BME280;22891;50.562;7.272;2022-07-18T03:37:32;101561.00;;;13.51;nan
36980;BME280;22891;50.562;7.272;2022-07-18T03:39:58;101533.00;;;13.31;nan
36980;BME280;22891;50.562;7.272;2022-07-18T03:42:24;101521.00;;;13.24;nan
36980;BME280;22891;50.562;7.272;2022-07-18T03:44:50;101510.00;;;13.27;nan
36980;BME280;22891;50.562;7.272;2022-07-18T03:47:16;101517.00;;;13.40;nan
36980;BME280;22891;50.562;7.272;2022-07-18T03:49:42;101508.00;;;13.25;nan
36980;BME280;22891;50.562;7.272;2022-07-18T03:52:08;101520.00;;;13.39;nan
36980;BME280;22891;50.562;7.272;2022-07-18T03:54:34;101520.00;;;13.45;nan
36980;BME280;22891;50.562;7.272;2022-07-18T03:57:00;101536.00;;;13.52;nan
36980;BME280;22891;50.562;7.272;2022-07-18T03:59:26;101536.00;;;13.49;nan
36980;BME280;22891;50.562;7.272;2022-07-18T04:01:52;101535.00;;;13.64;nan
36980;BME280;22891;50.562;7.272;2022-07-18T04:04:17;101553.00;;;13.68;nan
36980;BME280;22891;50.562;7.272;2022-07-18T04:06:43;101547.00;;;13.61;nan
36980;BME280;22891;50.562;7.272;2022-07-18T04:09:09;101539.00;;;13.54;nan
36980;BME280;22891;50.562;7.272;2022-07-18T04:11:35;101546.00;;;13.58;nan
36980;BME280;22891;50.562;7.272;2022-07-18T04:14:01;101542.00;;;13.77;nan
36980;BME280;22891;50.562;7.272;2022-07-18T04:16:26;101545.00;;;13.63;nan
36980;BME280;22891;50.562;7.272;2022-07-18T04:18:52;101527.00;;;13.53;nan
36980;BME280;22891;50.562;7.272;2022-07-18T04:21:18;101523.00;;;13.66;nan
36980;BME280;22891;50.562;7.272;2022-07-18T04:23:45;101537.00;;;13.75;nan
36980;BME280;22891;50.562;7.272;2022-07-18T04:26:10;101537.00;;;13.73;nan
36980;BME280;22891;50.562;7.272;2022-07-18T04:28:37;101544.00;;;13.90;nan
36980;BME280;22891;50.562;7.272;2022-07-18T04:31:03;101548.00;;;13.97;nan
36980;BME280;22891;50.562;7.272;2022-07-18T04:33:29;101531.00;;;14.03;nan
36980;BME280;22891;50.562;7.272;2022-07-18T04:35:55;101531.00;;;14.03;nan
36980;BME280;22891;50.562;7.272;2022-07-18T04:38:21;101537.00;;;14.16;nan
36980;BME280;22891;50.562;7.272;2022-07-18T04:40:46;101547.00;;;14.38;nan
36980;BME280;22891;50.562;7.272;2022-07-18T04:43:12;101590.00;;;15.62;nan
36980;BME280;22891;50.562;7.272;2022-07-18T04:45:38;101643.00;;;16.07;nan
36980;BME280;22891;50.562;7.272;2022-07-18T04:48:05;101680.00;;;16.45;nan
36980;BME280;22891;50.562;7.272;2022-07-18T04:50:32;101718.00;;;16.81;nan
36980;BME280;22891;50.562;7.272;2022-07-18T04:52:58;101746.00;;;17.14;nan
36980;BME280;22891;50.562;7.272;2022-07-18T04:55:25;101757.00;;;17.17;nan
36980;BME280;22891;50.562;7.272;2022-07-18T04:57:52;101755.00;;;17.22;nan
36980;BME280;22891;50.562;7.272;2022-07-18T05:00:20;101761.00;;;17.24;nan
36980;BME280;22891;50.562;7.272;2022-07-18T05:02:49;101752.00;;;17.30;nan
36980;BME280;22891;50.562;7.272;2022-07-18T05:05:17;101745.00;;;17.10;nan
36980;BME280;22891;50.562;7.272;2022-07-18T05:07:45;101719.00;;;16.77;nan
36980;BME280;22891;50.562;7.272;2022-07-18T05:10:12;101716.00;;;16.93;nan
36980;BME280;22891;50.562;7.272;2022-07-18T05:12:41;101712.00;;;17.01;nan
36980;BME280;22891;50.562;7.272;2022-07-18T05:15:10;101710.00;;;17.21;nan
36980;BME280;22891;50.562;7.272;2022-07-18T05:17:37;101734.00;;;17.48;nan
36980;BME280;22891;50.562;7.272;2022-07-18T05:20:05;101738.00;;;17.54;nan
36980;BME280;22891;50.562;7.272;2022-07-18T05:22:36;101718.00;;;17.16;nan
36980;BME280;22891;50.562;7.272;2022-07-18T05:25:03;101698.00;;;16.98;nan
36980;BME280;22891;50.562;7.272;2022-07-18T05:27:30;101695.00;;;16.89;nan
36980;BME280;22891;50.562;7.272;2022-07-18T05:29:56;101677.00;;;16.79;nan
36980;BME280;22891;50.562;7.272;2022-07-18T05:32:22;101704.00;;;17.27;nan
36980;BME280;22891;50.562;7.272;2022-07-18T05:34:47;101714.00;;;17.58;nan
36980;BME280;22891;50.562;7.272;2022-07-18T05:37:13;101718.00;;;17.54;nan
36980;BME280;22891;50.562;7.272;2022-07-18T05:39:39;101723.00;;;17.80;nan
36980;BME280;22891;50.562;7.272;2022-07-18T05:42:05;101725.00;;;17.81;nan
36980;BME280;22891;50.562;7.272;2022-07-18T05:44:31;101734.00;;;17.91;nan
36980;BME280;22891;50.562;7.272;2022-07-18T05:46:56;101751.00;;;18.44;nan
36980;BME280;22891;50.562;7.272;2022-07-18T05:49:22;101753.00;;;18.36;nan
36980;BME280;22891;50.562;7.272;2022-07-18T05:51:49;101734.00;;;18.02;nan
36980;BME280;22891;50.562;7.272;2022-07-18T05:54:14;101738.00;;;18.15;nan
36980;BME280;22891;50.562;7.272;2022-07-18T05:56:48;101736.00;;;18.26;nan
36980;BME280;22891;50.562;7.272;2022-07-18T05:59:15;101746.00;;;18.41;nan
36980;BME280;22891;50.562;7.272;2022-07-18T06:01:42;101743.00;;;18.56;nan
36980;BME280;22891;50.562;7.272;2022-07-18T06:04:09;101759.00;;;19.04;nan
36980;BME280;22891;50.562;7.272;2022-07-18T06:06:34;101762.00;;;19.25;nan
36980;BME280;22891;50.562;7.272;2022-07-18T06:09:01;101777.00;;;19.50;nan
36980;BME280;22891;50.562;7.272;2022-07-18T06:11:27;101774.00;;;19.74;nan
36980;BME280;22891;50.562;7.272;2022-07-18T06:13:53;101784.00;;;19.83;nan
36980;BME280;22891;50.562;7.272;2022-07-18T06:16:19;101804.00;;;19.44;nan
36980;BME280;22891;50.562;7.272;2022-07-18T06:18:45;101797.00;;;19.52;nan
36980;BME280;22891;50.562;7.272;2022-07-18T06:21:11;101803.00;;;19.58;nan
36980;BME280;22891;50.562;7.272;2022-07-18T06:23:36;101805.00;;;19.77;nan
36980;BME280;22891;50.562;7.272;2022-07-18T06:26:04;101812.00;;;20.03;nan
36980;BME280;22891;50.562;7.272;2022-07-18T06:28:30;101816.00;;;20.12;nan
36980;BME280;22891;50.562;7.272;2022-07-18T06:30:56;101821.00;;;20.15;nan
36980;BME280;22891;50.562;7.272;2022-07-18T06:33:23;101811.00;;;20.38;nan
36980;BME280;22891;50.562;7.272;2022-07-18T06:35:49;101807.00;;;20.40;nan
36980;BME280;22891;50.562;7.272;2022-07-18T06:38:16;101796.00;;;20.43;nan
36980;BME280;22891;50.562;7.272;2022-07-18T06:40:42;101809.00;;;20.68;nan
36980;BME280;22891;50.562;7.272;2022-07-18T06:43:09;101801.00;;;20.71;nan
36980;BME280;22891;50.562;7.272;2022-07-18T06:45:35;101797.00;;;20.78;nan
36980;BME280;22891;50.562;7.272;2022-07-18T06:48:15;101811.00;;;20.74;nan
36980;BME280;22891;50.562;7.272;2022-07-18T06:50:42;101802.00;;;20.81;nan
36980;BME280;22891;50.562;7.272;2022-07-18T06:53:10;101800.00;;;21.02;nan
36980;BME280;22891;50.562;7.272;2022-07-18T06:55:36;101804.00;;;20.96;nan
36980;BME280;22891;50.562;7.272;2022-07-18T06:58:02;101801.00;;;21.05;nan
36980;BME280;22891;50.562;7.272;2022-07-18T07:00:28;101810.00;;;20.99;nan
36980;BME280;22891;50.562;7.272;2022-07-18T07:03:08;101799.00;;;21.24;nan
36980;BME280;22891;50.562;7.272;2022-07-18T07:05:34;101804.00;;;21.27;nan
36980;BME280;22891;50.562;7.272;2022-07-18T07:08:00;101809.00;;;21.48;nan
36980;BME280;22891;50.562;7.272;2022-07-18T07:10:26;101804.00;;;21.53;nan
36980;BME280;22891;50.562;7.272;2022-07-18T07:12:52;101808.00;;;21.57;nan
36980;BME280;22891;50.562;7.272;2022-07-18T07:15:21;101815.00;;;21.64;nan
36980;BME280;22891;50.562;7.272;2022-07-18T07:17:49;101804.00;;;22.21;nan
36980;BME280;22891;50.562;7.272;2022-07-18T07:20:17;101797.00;;;22.17;nan
36980;BME280;22891;50.562;7.272;2022-07-18T07:22:50;101806.00;;;22.54;nan
36980;BME280;22891;50.562;7.272;2022-07-18T07:25:17;101801.00;;;22.74;nan
36980;BME280;22891;50.562;7.272;2022-07-18T07:27:44;101799.00;;;22.95;nan
36980;BME280;22891;50.562;7.272;2022-07-18T07:30:11;101810.00;;;22.95;nan
36980;BME280;22891;50.562;7.272;2022-07-18T07:32:39;101795.00;;;22.98;nan
36980;BME280;22891;50.562;7.272;2022-07-18T07:35:10;101795.00;;;23.42;nan
36980;BME280;22891;50.562;7.272;2022-07-18T07:37:39;101790.00;;;24.00;nan
36980;BME280;22891;50.562;7.272;2022-07-18T07:40:06;101785.00;;;24.52;nan
36980;BME280;22891;50.562;7.272;2022-07-18T07:42:32;101785.00;;;24.43;nan
36980;BME280;22891;50.562;7.272;2022-07-18T07:45:01;101789.00;;;24.71;nan
36980;BME280;22891;50.562;7.272;2022-07-18T07:47:27;101776.00;;;24.83;nan
36980;BME280;22891;50.562;7.272;2022-07-18T07:49:55;101780.00;;;25.08;nan
36980;BME280;22891;50.562;7.272;2022-07-18T07:52:21;101778.00;;;25.30;nan
36980;BME280;22891;50.562;7.272;2022-07-18T07:54:49;101779.00;;;26.19;nan
36980;BME280;22891;50.562;7.272;2022-07-18T07:57:16;101782.00;;;26.87;nan
36980;BME280;22891;50.562;7.272;2022-07-18T07:59:43;101774.00;;;26.97;nan
36980;BME280;22891;50.562;7.272;2022-07-18T08:02:09;101766.00;;;27.27;nan
36980;BME280;22891;50.562;7.272;2022-07-18T08:04:34;101769.00;;;27.27;nan
36980;BME280;22891;50.562;7.272;2022-07-18T08:07:01;101752.00;;;27.17;nan
36980;BME280;22891;50.562;7.272;2022-07-18T08:09:29;101756.00;;;27.45;nan
36980;BME280;22891;50.562;7.272;2022-07-18T08:11:55;101757.00;;;28.00;nan
36980;BME280;22891;50.562;7.272;2022-07-18T08:14:21;101741.00;;;27.99;nan
36980;BME280;22891;50.562;7.272;2022-07-18T08:16:47;101760.00;;;28.53;nan
36980;BME280;22891;50.562;7.272;2022-07-18T08:19:13;101762.00;;;28.24;nan
36980;BME280;22891;50.562;7.272;2022-07-18T08:21:39;101755.00;;;28.53;nan
36980;BME280;22891;50.562;7.272;2022-07-18T08:24:05;101763.00;;;29.51;nan
36980;BME280;22891;50.562;7.272;2022-07-18T08:26:31;101746.00;;;28.86;nan
36980;BME280;22891;50.562;7.272;2022-07-18T08:28:59;101750.00;;;29.19;nan
36980;BME280;22891;50.562;7.272;2022-07-18T08:31:25;101741.00;;;29.86;nan
36980;BME280;22891;50.562;7.272;2022-07-18T08:33:51;101750.00;;;29.85;nan
36980;BME280;22891;50.562;7.272;2022-07-18T08:36:17;101748.00;;;30.07;nan
36980;BME280;22891;50.562;7.272;2022-07-18T08:38:43;101745.00;;;30.33;nan
36980;BME280;22891;50.562;7.272;2022-07-18T08:41:10;101742.00;;;30.77;nan
36980;BME280;22891;50.562;7.272;2022-07-18T08:43:35;101748.00;;;31.62;nan
36980;BME280;22891;50.562;7.272;2022-07-18T08:46:03;101734.00;;;31.60;nan
36980;BME280;22891;50.562;7.272;2022-07-18T08:48:31;101735.00;;;31.74;nan
36980;BME280;22891;50.562;7.272;2022-07-18T08:50:59;101736.00;;;31.42;nan
36980;BME280;22891;50.562;7.272;2022-07-18T08:53:25;101732.00;;;31.43;nan
36980;BME280;22891;50.562;7.272;2022-07-18T08:55:53;101696.00;;;31.60;nan
36980;BME280;22891;50.562;7.272;2022-07-18T08:58:20;101711.00;;;32.02;nan
36980;BME280;22891;50.562;7.272;2022-07-18T09:00:46;101656.00;;;32.09;nan
36980;BME280;22891;50.562;7.272;2022-07-18T09:03:13;101733.00;;;31.61;nan
36980;BME280;22891;50.562;7.272;2022-07-18T09:05:39;101737.00;;;31.52;nan
36980;BME280;22891;50.562;7.272;2022-07-18T09:08:15;101690.00;;;31.70;nan
36980;BME280;22891;50.562;7.272;2022-07-18T09:10:50;101696.00;;;32.33;nan
36980;BME280;22891;50.562;7.272;2022-07-18T09:13:50;101696.00;;;32.33;nan
36980;BME280;22891;50.562;7.272;2022-07-18T09:16:16;101684.00;;;32.69;100.00
36980;BME280;22891;50.562;7.272;2022-07-18T09:21:19;101713.00;;;32.14;nan
36980;BME280;22891;50.562;7.272;2022-07-18T09:23:48;101710.00;;;32.29;nan
36980;BME280;22891;50.562;7.272;2022-07-18T09:26:41;101706.00;;;32.53;nan
36980;BME280;22891;50.562;7.272;2022-07-18T09:29:16;101701.00;;;32.83;nan
36980;BME280;22891;50.562;7.272;2022-07-18T09:39:23;101705.00;;;34.22;nan
36980;BME280;22891;50.562;7.272;2022-07-18T09:41:49;101697.00;;;34.41;nan
36980;BME280;22891;50.562;7.272;2022-07-18T09:47:03;101690.00;;;33.93;100.00
36980;BME280;22891;50.562;7.272;2022-07-18T09:52:07;101669.00;;;34.63;nan
36980;BME280;22891;50.562;7.272;2022-07-18T09:54:41;101670.00;;;34.84;nan
36980;BME280;22891;50.562;7.272;2022-07-18T09:57:08;101665.00;;;34.87;nan
36980;BME280;22891;50.562;7.272;2022-07-18T09:59:35;101644.00;;;34.81;nan
36980;BME280;22891;50.562;7.272;2022-07-18T10:02:04;101674.00;;;34.95;nan
36980;BME280;22891;50.562;7.272;2022-07-18T10:04:30;101658.00;;;35.58;nan
36980;BME280;22891;50.562;7.272;2022-07-18T10:06:56;101667.00;;;35.09;nan
36980;BME280;22891;50.562;7.272;2022-07-18T10:09:23;101670.00;;;35.11;nan
36980;BME280;22891;50.562;7.272;2022-07-18T10:11:50;101673.00;;;35.39;nan
36980;BME280;22891;50.562;7.272;2022-07-18T10:14:16;101677.00;;;34.94;nan
36980;BME280;22891;50.562;7.272;2022-07-18T10:16:43;101664.00;;;34.44;nan
36980;BME280;22891;50.562;7.272;2022-07-18T10:19:09;101665.00;;;34.49;nan
36980;BME280;22891;50.562;7.272;2022-07-18T10:21:37;101677.00;;;34.48;nan
36980;BME280;22891;50.562;7.272;2022-07-18T10:24:03;101665.00;;;35.01;nan
36980;BME280;22891;50.562;7.272;2022-07-18T10:26:29;101664.00;;;35.37;nan
36980;BME280;22891;50.562;7.272;2022-07-18T10:29:17;101672.00;;;35.55;nan
36980;BME280;22891;50.562;7.272;2022-07-18T10:32:32;101666.00;;;35.92;nan
36980;BME280;22891;50.562;7.272;2022-07-18T10:34:59;101676.00;;;35.48;nan
36980;BME280;22891;50.562;7.272;2022-07-18T10:37:25;101669.00;;;36.21;nan
36980;BME280;22891;50.562;7.272;2022-07-18T10:39:51;101668.00;;;35.80;nan
36980;BME280;22891;50.562;7.272;2022-07-18T10:42:20;101665.00;;;36.50;nan
36980;BME280;22891;50.562;7.272;2022-07-18T10:44:46;101671.00;;;37.21;nan
36980;BME280;22891;50.562;7.272;2022-07-18T10:47:16;101668.00;;;36.20;nan
36980;BME280;22891;50.562;7.272;2022-07-18T10:50:11;101658.00;;;35.87;nan
36980;BME280;22891;50.562;7.272;2022-07-18T10:52:59;101646.00;;;36.81;nan
36980;BME280;22891;50.562;7.272;2022-07-18T10:55:27;101642.00;;;37.09;nan
36980;BME280;22891;50.562;7.272;2022-07-18T10:58:15;101642.00;;;36.75;nan
36980;BME280;22891;50.562;7.272;2022-07-18T11:00:43;101640.00;;;35.86;nan
36980;BME280;22891;50.562;7.272;2022-07-18T11:03:11;101640.00;;;35.51;nan
36980;BME280;22891;50.562;7.272;2022-07-18T11:05:45;101635.00;;;34.87;nan
36980;BME280;22891;50.562;7.272;2022-07-18T11:08:16;101646.00;;;35.76;nan
36980;BME280;22891;50.562;7.272;2022-07-18T11:11:05;101648.00;;;35.69;nan
36980;BME280;22891;50.562;7.272;2022-07-18T11:13:41;101639.00;;;35.75;nan
36980;BME280;22891;50.562;7.272;2022-07-18T11:16:23;101639.00;;;36.27;nan
36980;BME280;22891;50.562;7.272;2022-07-18T11:19:35;101642.00;;;37.56;nan
36980;BME280;22891;50.562;7.272;2022-07-18T11:22:02;101627.00;;;37.67;nan
36980;BME280;22891;50.562;7.272;2022-07-18T11:24:28;101626.00;;;37.72;nan
36980;BME280;22891;50.562;7.272;2022-07-18T11:26:54;101623.00;;;36.70;nan
36980;BME280;22891;50.562;7.272;2022-07-18T11:29:20;101624.00;;;37.40;nan
36980;BME280;22891;50.562;7.272;2022-07-18T11:31:57;101619.00;;;37.28;nan
36980;BME280;22891;50.562;7.272;2022-07-18T11:34:25;101614.00;;;37.65;nan
36980;BME280;22891;50.562;7.272;2022-07-18T11:36:52;101611.00;;;38.43;nan
36980;BME280;22891;50.562;7.272;2022-07-18T11:39:31;101608.00;;;38.61;nan
36980;BME280;22891;50.562;7.272;2022-07-18T11:41:59;101605.00;;;39.08;nan
36980;BME280;22891;50.562;7.272;2022-07-18T11:44:27;101604.00;;;38.17;nan
36980;BME280;22891;50.562;7.272;2022-07-18T11:47:07;101604.00;;;38.77;nan
36980;BME280;22891;50.562;7.272;2022-07-18T11:49:35;101599.00;;;37.90;nan
36980;BME280;22891;50.562;7.272;2022-07-18T11:52:02;101601.00;;;36.70;nan
36980;BME280;22891;50.562;7.272;2022-07-18T11:54:28;101600.00;;;37.94;nan
36980;BME280;22891;50.562;7.272;2022-07-18T11:56:55;101597.00;;;37.95;nan
36980;BME280;22891;50.562;7.272;2022-07-18T11:59:22;101593.00;;;38.10;nan
36980;BME280;22891;50.562;7.272;2022-07-18T12:01:49;101592.00;;;37.39;nan
36980;BME280;22891;50.562;7.272;2022-07-18T12:04:20;101589.00;;;36.40;nan
36980;BME280;22891;50.562;7.272;2022-07-18T12:07:23;101594.00;;;36.12;nan
36980;BME280;22891;50.562;7.272;2022-07-18T12:09:51;101593.00;;;36.18;nan
36980;BME280;22891;50.562;7.272;2022-07-18T12:12:20;101580.00;;;37.07;nan
36980;BME280;22891;50.562;7.272;2022-07-18T12:14:58;101585.00;;;37.07;nan
36980;BME280;22891;50.562;7.272;2022-07-18T12:17:25;101576.00;;;36.48;nan
36980;BME280;22891;50.562;7.272;2022-07-18T12:19:51;101578.00;;;36.27;nan
36980;BME280;22891;50.562;7.272;2022-07-18T12:22:17;101580.00;;;35.91;nan
36980;BME280;22891;50.562;7.272;2022-07-18T12:24:53;101568.00;;;36.60;nan
36980;BME280;22891;50.562;7.272;2022-07-18T12:27:35;101568.00;;;36.28;nan
36980;BME280;22891;50.562;7.272;2022-07-18T12:30:19;101562.00;;;36.33;nan
36980;BME280;22891;50.562;7.272;2022-07-18T12:32:51;101566.00;;;36.58;nan
36980;BME280;22891;50.562;7.272;2022-07-18T12:35:26;101555.00;;;36.69;nan
36980;BME280;22891;50.562;7.272;2022-07-18T12:40:55;101555.00;;;37.19;nan
36980;BME280;22891;50.562;7.272;2022-07-18T12:43:29;101548.00;;;37.25;nan
36980;BME280;22891;50.562;7.272;2022-07-18T12:45:57;101542.00;;;36.23;nan
36980;BME280;22891;50.562;7.272;2022-07-18T12:48:23;101545.00;;;36.62;nan
36980;BME280;22891;50.562;7.272;2022-07-18T12:51:08;101539.00;;;37.16;nan
36980;BME280;22891;50.562;7.272;2022-07-18T12:53:37;101541.00;;;36.56;nan
36980;BME280;22891;50.562;7.272;2022-07-18T12:56:04;101532.00;;;36.61;nan
36980;BME280;22891;50.562;7.272;2022-07-18T12:58:30;101526.00;;;37.26;nan
36980;BME280;22891;50.562;7.272;2022-07-18T13:00:55;101522.00;;;37.00;nan
36980;BME280;22891;50.562;7.272;2022-07-18T13:03:22;101523.00;;;36.47;nan
36980;BME280;22891;50.562;7.272;2022-07-18T13:05:49;101523.00;;;36.60;nan
36980;BME280;22891;50.562;7.272;2022-07-18T13:08:15;101520.00;;;37.00;nan
36980;BME280;22891;50.562;7.272;2022-07-18T13:10:43;101518.00;;;37.08;nan
36980;BME280;22891;50.562;7.272;2022-07-18T13:13:09;101515.00;;;37.35;nan
36980;BME280;22891;50.562;7.272;2022-07-18T13:15:36;101512.00;;;37.53;nan
36980;BME280;22891;50.562;7.272;2022-07-18T13:18:02;101511.00;;;37.04;nan
36980;BME280;22891;50.562;7.272;2022-07-18T13:20:29;101513.00;;;36.78;nan
36980;BME280;22891;50.562;7.272;2022-07-18T13:22:56;101507.00;;;36.59;nan
36980;BME280;22891;50.562;7.272;2022-07-18T13:25:22;101506.00;;;37.24;nan
36980;BME280;22891;50.562;7.272;2022-07-18T13:27:50;101502.00;;;36.90;nan
36980;BME280;22891;50.562;7.272;2022-07-18T13:30:16;101497.00;;;36.78;nan
36980;BME280;22891;50.562;7.272;2022-07-18T13:32:42;101495.00;;;36.92;nan
36980;BME280;22891;50.562;7.272;2022-07-18T13:35:10;101493.00;;;36.60;nan